createdAt,value
2019-01-06T00:01:48.292Z,83.00
2019-01-06T00:04:47.331Z,82.20
2019-01-06T00:07:46.531Z,81.90
2019-01-06T00:10:34.741Z,81.30
2019-01-06T00:13:22.939Z,81.50
2019-01-06T00:16:15.156Z,80.60
2019-01-06T00:19:03.189Z,80.10
2019-01-06T00:21:51.668Z,80.20
2019-01-06T00:24:39.618Z,80.00
2019-01-06T00:27:24.955Z,80.00
2019-01-06T00:30:13.539Z,80.30
2019-01-06T00:33:01.259Z,81.20
2019-01-06T00:35:53.755Z,82.00
2019-01-06T00:38:55.597Z,82.00
2019-01-06T00:41:51.216Z,81.90
2019-01-06T00:44:39.692Z,81.90
2019-01-06T00:47:28.389Z,82.20
2019-01-06T00:50:27.141Z,81.90
2019-01-06T00:53:22.403Z,82.20
2019-01-06T00:56:18.143Z,82.50
2019-01-06T00:59:03.093Z,82.80
2019-01-06T01:01:47.944Z,82.90
2019-01-06T01:04:36.335Z,82.50
2019-01-06T01:07:24.762Z,82.80
2019-01-06T01:10:12.781Z,83.10
2019-01-06T01:13:01.252Z,83.10
2019-01-06T01:15:49.614Z,84.20
2019-01-06T01:18:32.310Z,82.40
2019-01-06T01:21:19.872Z,81.80
2019-01-06T01:24:09.453Z,81.90
2019-01-06T01:26:57.942Z,81.20
2019-01-06T01:29:46.785Z,80.40
2019-01-06T01:32:45.332Z,80.70
2019-01-06T01:35:53.205Z,80.40
2019-01-06T01:38:41.489Z,80.40
2019-01-06T01:41:48.957Z,79.80
2019-01-06T01:44:50.643Z,80.40
2019-01-06T01:47:42.267Z,80.60
2019-01-06T01:50:49.820Z,80.80
2019-01-06T01:53:48.312Z,82.10
2019-01-06T01:56:35.155Z,81.50
2019-01-06T01:59:24.815Z,81.50
2019-01-06T02:02:32.800Z,81.50
2019-01-06T02:05:24.271Z,82.60
2019-01-06T02:08:08.348Z,82.70
2019-01-06T02:10:56.667Z,82.60
2019-01-06T02:13:44.985Z,82.90
2019-01-06T02:16:34.516Z,83.30
2019-01-06T02:19:26.517Z,83.70
2019-01-06T02:22:16.685Z,83.70
2019-01-06T02:25:08.989Z,83.00
2019-01-06T02:27:58.417Z,83.30
2019-01-06T02:30:48.004Z,84.30
2019-01-06T02:33:48.854Z,84.30
2019-01-06T02:36:37.221Z,83.60
2019-01-06T02:39:45.339Z,83.20
2019-01-06T02:42:46.912Z,83.00
2019-01-06T02:45:31.377Z,82.40
2019-01-06T02:48:28.893Z,81.90
2019-01-06T02:51:24.524Z,81.60
2019-01-06T02:54:14.179Z,81.90
2019-01-06T02:57:03.016Z,81.40
2019-01-06T02:59:51.119Z,80.90
2019-01-06T03:02:39.417Z,80.40
2019-01-06T03:05:37.644Z,79.90
2019-01-06T03:08:25.575Z,79.90
2019-01-06T03:11:33.177Z,79.00
2019-01-06T03:14:21.452Z,79.00
2019-01-06T03:17:13.681Z,79.70
2019-01-06T03:20:02.039Z,79.90
2019-01-06T03:22:49.482Z,79.50
2019-01-06T03:25:57.301Z,79.90
2019-01-06T03:28:45.791Z,80.60
2019-01-06T03:31:44.266Z,81.60
2019-01-06T03:34:32.839Z,81.70
2019-01-06T03:37:22.289Z,81.60
2019-01-06T03:40:18.033Z,80.90
2019-01-06T03:43:10.217Z,81.70
2019-01-06T03:45:58.420Z,81.00
2019-01-06T03:48:46.709Z,82.10
2019-01-06T03:51:36.536Z,82.10
2019-01-06T03:54:35.421Z,81.60
2019-01-06T03:57:43.658Z,81.60
2019-01-06T04:00:47.979Z,81.20
2019-01-06T04:03:46.971Z,81.40
2019-01-06T04:06:37.613Z,81.50
2019-01-06T04:09:36.565Z,81.90
2019-01-06T04:12:41.400Z,81.00
2019-01-06T04:15:36.643Z,81.50
2019-01-06T04:18:26.502Z,82.00
2019-01-06T04:21:29.612Z,82.10
2019-01-06T04:24:34.223Z,81.90
2019-01-06T04:27:35.725Z,82.60
2019-01-06T04:30:30.040Z,81.50
2019-01-06T04:33:18.701Z,81.40
2019-01-06T04:36:13.434Z,81.40
2019-01-06T04:39:01.961Z,81.60
2019-01-06T04:41:51.866Z,81.50
2019-01-06T04:44:47.092Z,80.90
2019-01-06T04:47:35.412Z,81.00
2019-01-06T04:50:28.958Z,80.80
2019-01-06T04:53:18.992Z,81.40
2019-01-06T04:56:07.103Z,81.60
2019-01-06T04:58:55.276Z,81.70
2019-01-06T05:01:44.178Z,81.30
2019-01-06T05:04:48.850Z,80.50
2019-01-06T05:07:47.667Z,80.70
2019-01-06T05:10:37.495Z,80.40
2019-01-06T05:13:38.910Z,80.90
2019-01-06T05:16:43.724Z,81.40
2019-01-06T05:19:32.044Z,81.90
2019-01-06T05:22:26.047Z,81.10
2019-01-06T05:25:24.807Z,80.30
2019-01-06T05:28:33.307Z,80.10
2019-01-06T05:31:21.709Z,79.80
2019-01-06T05:34:26.225Z,79.30
2019-01-06T05:37:27.593Z,78.90
2019-01-06T05:40:16.039Z,78.30
2019-01-06T05:43:12.991Z,78.80
2019-01-06T05:46:05.230Z,79.50
2019-01-06T05:49:10.094Z,79.20
2019-01-06T05:51:59.470Z,79.40
2019-01-06T05:54:51.632Z,79.40
2019-01-06T05:57:32.743Z,79.20
2019-01-06T06:00:21.134Z,78.70
2019-01-06T06:03:03.806Z,79.10
2019-01-06T06:05:52.188Z,78.70
2019-01-06T06:08:43.967Z,78.40
2019-01-06T06:11:32.048Z,79.10
2019-01-06T06:14:27.549Z,79.60
2019-01-06T06:17:15.724Z,78.90
2019-01-06T06:20:15.572Z,80.00
2019-01-06T06:23:08.076Z,80.40
2019-01-06T06:26:06.565Z,80.40
2019-01-06T06:29:02.181Z,80.70
2019-01-06T06:32:07.086Z,80.90
2019-01-06T06:34:54.979Z,79.90
2019-01-06T06:37:50.428Z,81.00
2019-01-06T06:40:37.940Z,81.60
2019-01-06T06:43:33.276Z,82.70
2019-01-06T06:46:25.803Z,82.60
2019-01-06T06:49:14.410Z,82.70
2019-01-06T06:51:58.181Z,83.60
2019-01-06T06:54:46.407Z,83.80
2019-01-06T06:58:14.293Z,83.80
2019-01-06T07:01:14.999Z,84.50
2019-01-06T07:04:09.395Z,85.30
2019-01-06T07:07:01.770Z,85.70
2019-01-06T07:09:54.071Z,86.20
2019-01-06T07:12:43.554Z,85.30
2019-01-06T07:15:32.022Z,86.00
2019-01-06T07:18:33.907Z,86.20
2019-01-06T07:21:30.044Z,85.70
2019-01-06T07:24:30.606Z,85.90
2019-01-06T07:27:21.836Z,85.20
2019-01-06T07:30:10.176Z,84.70
2019-01-06T07:32:54.353Z,84.60
2019-01-06T07:35:47.097Z,84.80
2019-01-06T07:38:41.073Z,84.80
2019-01-06T07:41:31.025Z,84.40
2019-01-06T07:44:20.663Z,83.60
2019-01-06T07:47:25.663Z,82.80
2019-01-06T07:50:18.065Z,83.90
2019-01-06T07:53:15.631Z,84.30
2019-01-06T07:56:05.177Z,85.50
2019-01-06T07:58:48.198Z,85.30
2019-01-06T08:01:36.371Z,85.70
2019-01-06T08:04:41.153Z,85.50
2019-01-06T08:07:39.502Z,85.10
2019-01-06T08:10:31.775Z,85.90
2019-01-06T08:13:21.197Z,85.60
2019-01-06T08:16:16.461Z,85.50
2019-01-06T08:19:08.927Z,85.50
2019-01-06T08:22:07.639Z,85.30
2019-01-06T08:24:53.655Z,85.10
2019-01-06T08:27:42.431Z,85.10
2019-01-06T08:30:36.161Z,85.50
2019-01-06T08:33:26.883Z,84.80
2019-01-06T08:36:34.514Z,84.70
2019-01-06T08:39:19.188Z,85.40
2019-01-06T08:42:20.700Z,85.70
2019-01-06T08:44:59.530Z,86.00
2019-01-06T08:48:09.644Z,85.30
2019-01-06T08:51:08.258Z,86.40
2019-01-06T08:53:57.778Z,86.80
2019-01-06T08:56:46.722Z,86.70
2019-01-06T08:59:51.872Z,86.50
2019-01-06T09:02:50.720Z,86.60
2019-01-06T09:05:39.030Z,86.90
2019-01-06T09:08:34.728Z,86.80
2019-01-06T09:11:27.778Z,87.30
2019-01-06T09:14:24.329Z,86.80
2019-01-06T09:17:12.590Z,86.40
2019-01-06T09:20:17.203Z,87.70
2019-01-06T09:23:05.564Z,86.80
2019-01-06T09:26:01.621Z,87.50
2019-01-06T09:28:50.491Z,88.20
2019-01-06T09:31:40.099Z,87.90
2019-01-06T09:34:30.685Z,87.50
2019-01-06T09:37:38.721Z,87.60
2019-01-06T09:40:32.003Z,87.30
2019-01-06T09:43:34.215Z,87.50
2019-01-06T09:46:38.885Z,88.50
2019-01-06T09:49:34.459Z,88.90
2019-01-06T09:52:27.335Z,88.50
2019-01-06T09:55:09.005Z,88.60
2019-01-06T09:57:58.666Z,88.60
2019-01-06T10:00:48.442Z,88.80
2019-01-06T10:03:44.882Z,88.00
2019-01-06T10:06:35.517Z,86.80
2019-01-06T10:09:25.858Z,85.30
2019-01-06T10:12:30.962Z,85.20
2019-01-06T10:15:36.299Z,82.90
2019-01-06T10:18:27.873Z,82.30
2019-01-06T10:21:26.556Z,83.30
2019-01-06T10:24:15.165Z,83.50
2019-01-06T10:27:03.915Z,83.50
2019-01-06T10:29:57.314Z,83.90
2019-01-06T10:32:46.807Z,84.70
2019-01-06T10:35:36.766Z,85.10
2019-01-06T10:38:32.554Z,85.10
2019-01-06T10:41:22.871Z,85.90
2019-01-06T10:44:15.570Z,85.80
2019-01-06T10:47:05.382Z,86.50
2019-01-06T10:50:07.153Z,86.80
2019-01-06T10:52:55.777Z,86.70
2019-01-06T10:55:48.464Z,86.40
2019-01-06T10:58:38.040Z,86.00
2019-01-06T11:01:36.637Z,86.40
2019-01-06T11:04:20.914Z,84.20
2019-01-06T11:07:22.844Z,83.50
2019-01-06T11:10:12.446Z,83.50
2019-01-06T11:13:00.453Z,83.50
2019-01-06T11:15:52.699Z,83.40
2019-01-06T11:18:51.175Z,84.30
2019-01-06T11:21:46.422Z,82.40
2019-01-06T11:24:35.900Z,80.80
2019-01-06T11:27:43.280Z,80.70
2019-01-06T11:30:45.383Z,79.30
2019-01-06T11:33:35.184Z,80.10
2019-01-06T11:36:31.539Z,79.20
2019-01-06T11:39:39.320Z,78.20
2019-01-06T11:42:34.450Z,77.10
2019-01-06T11:45:37.640Z,78.00
2019-01-06T11:48:25.920Z,78.70
2019-01-06T11:51:14.087Z,76.00
2019-01-06T11:54:03.033Z,76.40
2019-01-06T11:57:04.584Z,75.90
2019-01-06T12:00:04.077Z,75.10
2019-01-06T12:02:56.666Z,75.30
2019-01-06T12:05:46.700Z,75.90
2019-01-06T12:08:41.153Z,75.10
2019-01-06T12:11:30.239Z,74.60
2019-01-06T12:14:22.776Z,74.10
2019-01-06T12:17:15.473Z,74.20
2019-01-06T12:20:16.753Z,74.10
2019-01-06T12:23:04.621Z,74.00
2019-01-06T12:25:50.842Z,73.20
2019-01-06T12:28:43.219Z,71.90
2019-01-06T12:31:43.719Z,71.00
2019-01-06T12:34:39.388Z,71.00
2019-01-06T12:37:47.187Z,71.50
2019-01-06T12:40:54.271Z,70.60
2019-01-06T12:43:44.100Z,70.10
2019-01-06T12:46:39.778Z,70.40
2019-01-06T12:49:28.302Z,69.80
2019-01-06T12:52:24.323Z,68.70
2019-01-06T12:55:13.871Z,68.60
2019-01-06T12:58:02.350Z,68.60
2019-01-06T13:00:54.911Z,68.90
2019-01-06T13:03:47.336Z,69.40
2019-01-06T13:06:36.059Z,68.90
2019-01-06T13:09:32.431Z,68.90
2019-01-06T13:12:34.390Z,69.30
2019-01-06T13:15:36.318Z,68.90
2019-01-06T13:18:37.755Z,69.70
2019-01-06T13:21:33.106Z,70.50
2019-01-06T13:24:21.780Z,70.30
2019-01-06T13:27:10.209Z,70.20
2019-01-06T13:30:18.103Z,69.90
2019-01-06T13:33:10.628Z,70.80
2019-01-06T13:36:04.243Z,71.10
2019-01-06T13:38:54.939Z,70.90
2019-01-06T13:41:43.259Z,70.90
2019-01-06T13:44:30.201Z,70.90
2019-01-06T13:47:19.313Z,70.30
2019-01-06T13:50:08.382Z,70.80
2019-01-06T13:53:01.216Z,70.90
2019-01-06T13:56:03.685Z,70.80
2019-01-06T13:58:52.416Z,71.80
2019-01-06T14:01:51.072Z,72.20
2019-01-06T14:04:38.434Z,71.70
2019-01-06T14:07:28.292Z,71.90
2019-01-06T14:10:16.405Z,71.90
2019-01-06T14:13:13.372Z,72.50
2019-01-06T14:16:01.670Z,73.00
2019-01-06T14:18:54.678Z,72.90
2019-01-06T14:21:42.684Z,72.80
2019-01-06T14:24:44.340Z,73.30
2019-01-06T14:27:36.465Z,73.40
2019-01-06T14:30:25.120Z,75.10
2019-01-06T14:33:25.710Z,74.80
2019-01-06T14:36:13.941Z,74.10
2019-01-06T14:39:10.412Z,73.70
2019-01-06T14:41:56.817Z,74.80
2019-01-06T14:44:45.597Z,74.80
2019-01-06T14:47:35.536Z,74.80
2019-01-06T14:50:25.360Z,74.00
2019-01-06T14:53:24.078Z,73.50
2019-01-06T14:56:26.043Z,73.60
2019-01-06T14:59:12.922Z,72.60
2019-01-06T15:02:15.109Z,72.40
2019-01-06T15:05:10.913Z,72.00
2019-01-06T15:07:59.244Z,72.20
2019-01-06T15:10:47.983Z,71.90
2019-01-06T15:13:46.458Z,72.60
2019-01-06T15:16:31.564Z,73.00
2019-01-06T15:19:22.687Z,73.20
2019-01-06T15:22:18.079Z,73.40
2019-01-06T15:25:19.995Z,73.70
2019-01-06T15:28:05.374Z,73.40
2019-01-06T15:31:01.141Z,73.70
2019-01-06T15:33:50.643Z,75.00
2019-01-06T15:36:38.979Z,75.10
2019-01-06T15:39:38.495Z,75.70
2019-01-06T15:42:31.074Z,77.30
2019-01-06T15:45:19.338Z,77.50
2019-01-06T15:48:18.534Z,77.10
2019-01-06T15:51:12.613Z,77.20
2019-01-06T15:54:00.989Z,77.90
2019-01-06T15:56:49.444Z,76.90
2019-01-06T15:59:44.951Z,77.00
2019-01-06T16:02:40.497Z,77.20
2019-01-06T16:05:28.772Z,76.90
2019-01-06T16:08:16.514Z,77.00
2019-01-06T16:11:19.455Z,77.10
2019-01-06T16:14:14.681Z,76.60
2019-01-06T16:17:03.072Z,76.70
2019-01-06T16:19:51.058Z,76.60
2019-01-06T16:22:46.855Z,76.20
2019-01-06T16:25:39.140Z,76.50
2019-01-06T16:28:29.363Z,76.40
2019-01-06T16:31:17.805Z,76.10
2019-01-06T16:34:02.570Z,76.10
2019-01-06T16:36:50.926Z,75.60
2019-01-06T16:39:39.763Z,75.30
2019-01-06T16:42:27.863Z,75.00
2019-01-06T16:45:21.301Z,75.00
2019-01-06T16:48:13.787Z,75.00
2019-01-06T16:51:01.579Z,75.00
2019-01-06T16:54:00.452Z,75.00
2019-01-06T16:56:48.994Z,74.20
2019-01-06T16:59:41.278Z,74.90
2019-01-06T17:02:38.716Z,75.80
2019-01-06T17:05:26.746Z,74.80
2019-01-06T17:08:29.102Z,75.20
2019-01-06T17:11:17.695Z,74.80
2019-01-06T17:14:06.002Z,74.60
2019-01-06T17:16:54.414Z,74.20
2019-01-06T17:19:42.196Z,74.20
2019-01-06T17:22:50.020Z,74.20
2019-01-06T17:25:42.642Z,74.10
2019-01-06T17:28:47.429Z,74.10
2019-01-06T17:31:43.107Z,75.00
2019-01-06T17:34:46.174Z,74.40
2019-01-06T17:37:44.454Z,74.30
2019-01-06T17:40:26.917Z,74.70
2019-01-06T17:43:17.947Z,74.20
2019-01-06T17:46:19.716Z,74.10
2019-01-06T17:49:24.354Z,73.70
2019-01-06T17:52:29.025Z,73.30
2019-01-06T17:55:17.439Z,71.60
2019-01-06T17:58:06.037Z,73.80
2019-01-06T18:00:58.626Z,73.40
2019-01-06T18:03:45.238Z,73.20
2019-01-06T18:06:38.963Z,72.40
2019-01-06T18:09:37.787Z,72.30
2019-01-06T18:12:23.255Z,72.50
2019-01-06T18:15:22.094Z,72.60
2019-01-06T18:18:17.573Z,72.80
2019-01-06T18:21:19.742Z,72.60
2019-01-06T18:24:21.225Z,73.30
2019-01-06T18:27:16.651Z,72.60
2019-01-06T18:30:06.640Z,72.30
2019-01-06T18:33:08.545Z,73.00
2019-01-06T18:36:04.759Z,72.70
2019-01-06T18:39:09.365Z,73.50
2019-01-06T18:42:05.430Z,73.40
2019-01-06T18:45:10.314Z,74.20
2019-01-06T18:47:59.229Z,74.50
2019-01-06T18:50:51.454Z,74.40
2019-01-06T18:53:40.261Z,74.20
2019-01-06T18:56:45.260Z,74.30
2019-01-06T18:59:33.937Z,74.20
2019-01-06T19:02:32.530Z,74.20
2019-01-06T19:05:21.285Z,74.40
2019-01-06T19:08:19.923Z,74.70
2019-01-06T19:11:08.478Z,74.90
2019-01-06T19:14:16.188Z,75.00
2019-01-06T19:17:23.934Z,74.70
2019-01-06T19:20:13.315Z,74.20
2019-01-06T19:23:01.451Z,74.60
2019-01-06T19:25:50.104Z,75.00
2019-01-06T19:28:38.299Z,75.20
2019-01-06T19:31:27.869Z,74.90
2019-01-06T19:34:34.632Z,74.80
2019-01-06T19:37:33.083Z,74.80
2019-01-06T19:40:28.921Z,74.40
2019-01-06T19:43:34.256Z,74.20
2019-01-06T19:46:43.627Z,74.00
2019-01-06T19:49:45.678Z,73.30
2019-01-06T19:52:38.124Z,73.40
2019-01-06T19:55:26.675Z,73.20
2019-01-06T19:58:15.109Z,73.00
2019-01-06T20:01:07.589Z,73.00
2019-01-06T20:04:12.844Z,73.20
2019-01-06T20:07:02.686Z,73.00
2019-01-06T20:09:58.151Z,73.00
2019-01-06T20:12:47.762Z,73.00
2019-01-06T20:15:37.956Z,73.10
2019-01-06T20:18:42.783Z,72.80
2019-01-06T20:21:32.452Z,72.80
2019-01-06T20:24:34.546Z,72.70
2019-01-06T20:27:24.950Z,73.00
2019-01-06T20:30:21.613Z,73.30
2019-01-06T20:33:23.653Z,73.80
2019-01-06T20:36:14.538Z,74.10
2019-01-06T20:39:03.467Z,74.20
2019-01-06T20:42:00.956Z,73.80
2019-01-06T20:44:49.864Z,73.00
2019-01-06T20:47:42.958Z,73.20
2019-01-06T20:50:31.720Z,73.10
2019-01-06T20:53:16.926Z,72.90
2019-01-06T20:56:07.207Z,72.70
2019-01-06T20:59:08.251Z,73.40
2019-01-06T21:01:56.521Z,73.10
2019-01-06T21:05:04.333Z,72.90
2019-01-06T21:08:11.612Z,73.00
2019-01-06T21:10:53.221Z,73.20
2019-01-06T21:13:41.318Z,73.20
2019-01-06T21:16:46.096Z,73.30
2019-01-06T21:19:34.099Z,72.80
2019-01-06T21:22:23.811Z,73.20
2019-01-06T21:25:12.302Z,73.10
2019-01-06T21:28:10.833Z,73.00
2019-01-06T21:30:59.035Z,73.30
2019-01-06T21:33:47.543Z,73.30
2019-01-06T21:36:37.371Z,73.50
2019-01-06T21:39:26.553Z,73.40
2019-01-06T21:42:09.175Z,73.70
2019-01-06T21:45:17.362Z,74.10
2019-01-06T21:48:15.761Z,74.10
2019-01-06T21:51:07.743Z,74.20
2019-01-06T21:54:15.652Z,74.10
2019-01-06T21:57:09.732Z,73.80
2019-01-06T21:59:59.297Z,73.80
2019-01-06T22:03:01.494Z,74.10
2019-01-06T22:06:03.224Z,74.10
2019-01-06T22:09:11.168Z,74.10
2019-01-06T22:11:59.482Z,74.10
2019-01-06T22:14:49.650Z,74.10
2019-01-06T22:17:42.275Z,74.00
2019-01-06T22:20:43.352Z,74.30
2019-01-06T22:23:31.451Z,74.00
2019-01-06T22:26:21.051Z,74.10
2019-01-06T22:29:13.670Z,74.00
2019-01-06T22:32:15.378Z,73.90
2019-01-06T22:35:03.844Z,74.40
2019-01-06T22:38:02.823Z,74.70
2019-01-06T22:40:55.683Z,75.10
2019-01-06T22:43:44.315Z,74.60
2019-01-06T22:46:34.099Z,74.70
2019-01-06T22:49:22.586Z,75.10
2019-01-06T22:52:27.223Z,75.10
2019-01-06T22:55:16.906Z,74.80
2019-01-06T22:58:24.637Z,74.70
2019-01-06T23:01:14.522Z,75.60
2019-01-06T23:04:08.444Z,74.60
2019-01-06T23:07:10.038Z,74.70
2019-01-06T23:10:02.842Z,74.80
2019-01-06T23:12:46.031Z,75.50
2019-01-06T23:15:34.444Z,75.00
2019-01-06T23:18:22.823Z,75.00
2019-01-06T23:21:30.558Z,74.90
2019-01-06T23:24:35.108Z,75.20
2019-01-06T23:27:27.515Z,75.20
2019-01-06T23:30:18.762Z,75.40
2019-01-06T23:33:20.178Z,75.50
2019-01-06T23:36:14.932Z,75.60
2019-01-06T23:39:03.043Z,75.50
2019-01-06T23:41:52.827Z,75.50
2019-01-06T23:44:42.440Z,75.10
2019-01-06T23:47:44.330Z,75.60
2019-01-06T23:50:43.752Z,75.80
2019-01-06T23:53:32.669Z,75.80
2019-01-06T23:56:25.186Z,75.60
2019-01-06T23:59:12.360Z,75.20
